Hope, Maine
Current Conditions -  °F | °C
As of 5:15 PM on Sunday 25 Jan 2015 (Local Time) from KRKD Reporting Station
Clear Clear  
Wind Chill:   Ceiling: Unl
Heat Index: 21°   Visibility: 10mi
Dew Point:   Wind: 20mph
Humidity: 42%   Direction: 280°W
Pressure: 29.71"   Gusts: 23mph
Location:  44.26°N, 69.16°W
Report Text: KRKD 252215Z AUTO 28017G20KT 10SM CLR M06/M17 A2971 RMK AO1
Loading
Personal Weather Stations






























Interactive Weather Map New forecast layout! Learn more

10-Day Weather Forecast

Advertisements
Track Severe Weather on mobile